Time;durP1;ratioP1;P1;durP2;ratioP2;P2;SDS_P1;SDS_P2;PMS_P1;PMS_P2;Temp;Humidity;BMP_temperature;BMP_pressure;BME280_temperature;BME280_humidity;BME280_pressure;Samples;Min_cycle;Max_cycle;Signal;HPM_P1;HPM_P2
2023/01/10 00:00:42;;;;;;;3.15;0.73;;;17.40;1.00;;;;;;5075335;28;20062;-39
2023/01/10 00:03:10;;;;;;;4.38;1.33;;;17.40;1.00;;;;;;5075226;28;20060;-38
2023/01/10 00:05:38;;;;;;;4.78;1.48;;;17.40;1.00;;;;;;5057237;28;20083;-39
2023/01/10 00:08:06;;;;;;;5.95;1.17;;;17.30;1.00;;;;;;5075461;28;20037;-39
2023/01/10 00:10:34;;;;;;;6.28;0.98;;;17.30;1.00;;;;;;5075182;28;20463;-39
2023/01/10 00:15:46;;;;;;;4.22;1.77;;;17.30;1.00;;;;;;5075152;28;20480;-38
2023/01/10 00:18:13;;;;;;;5.18;1.42;;;17.20;1.00;;;;;;5075135;28;20484;-37
2023/01/10 00:20:40;;;;;;;7.90;2.22;;;17.20;1.00;;;;;;5075093;28;20416;-38
2023/01/10 00:23:07;;;;;;;6.95;1.95;;;17.20;1.00;;;;;;5056980;28;20048;-38
2023/01/10 00:25:34;;;;;;;4.05;0.95;;;17.20;1.00;;;;;;5074655;28;20055;-38
2023/01/10 00:28:20;;;;;;;5.57;1.55;;;17.20;1.00;;;;;;5075017;28;20037;-37
2023/01/10 00:31:00;;;;;;;6.80;1.55;;;17.10;1.00;;;;;;5074957;28;20145;-38
2023/01/10 00:33:30;;;;;;;6.10;1.25;;;17.10;1.00;;;;;;5074640;28;20095;-39
2023/01/10 00:35:58;;;;;;;4.72;1.20;;;17.10;1.00;;;;;;5074501;28;20040;-38
2023/01/10 00:38:25;;;;;;;3.83;0.80;;;17.10;1.00;;;;;;5074763;28;20098;-38
2023/01/10 00:40:52;;;;;;;4.60;1.45;;;17.00;1.00;;;;;;5074710;28;20040;-40
2023/01/10 00:46:04;;;;;;;6.00;1.30;;;17.00;1.00;;;;;;5074518;28;20051;-39
2023/01/10 00:48:31;;;;;;;5.80;1.42;;;17.00;1.00;;;;;;5074505;28;20561;-40
2023/01/10 00:50:58;;;;;;;5.10;1.25;;;16.90;1.00;;;;;;5074505;28;20040;-39
2023/01/10 00:53:25;;;;;;;6.85;1.88;;;16.90;1.00;;;;;;5074168;28;20113;-37
2023/01/10 00:55:53;;;;;;;4.00;1.50;;;16.90;1.00;;;;;;5056491;28;20436;-37
2023/01/10 00:58:20;;;;;;;7.18;2.25;;;16.90;1.00;;;;;;5074496;28;20056;-38
2023/01/10 01:00:48;;;;;;;4.32;0.95;;;16.90;1.00;;;;;;5074185;28;20043;-37
2023/01/10 01:03:17;;;;;;;6.57;1.30;;;16.90;1.00;;;;;;5074038;28;20080;-38
2023/01/10 01:05:45;;;;;;;8.02;1.75;;;16.80;1.00;;;;;;5074193;28;20037;-38
2023/01/10 01:08:14;;;;;;;7.65;1.55;;;16.80;1.00;;;;;;5055764;28;20120;-38
2023/01/10 01:10:41;;;;;;;5.07;1.48;;;16.80;1.00;;;;;;5074199;28;20062;-37
2023/01/10 01:13:17;;;;;;;12.88;2.53;;;16.80;1.00;;;;;;5073876;28;20060;-38
2023/01/10 01:15:44;;;;;;;9.82;1.90;;;16.80;1.00;;;;;;5074057;28;20040;-38
2023/01/10 01:18:14;;;;;;;7.00;1.55;;;16.80;1.00;;;;;;5073969;28;20484;-38
2023/01/10 01:20:44;;;;;;;5.13;1.85;;;16.80;1.00;;;;;;5073976;28;20476;-38
2023/01/10 01:23:11;;;;;;;9.88;1.42;;;16.70;1.00;;;;;;5073554;28;20051;-39
2023/01/10 01:25:38;;;;;;;8.63;2.05;;;16.70;1.00;;;;;;5073876;28;20040;-39
2023/01/10 01:28:05;;;;;;;4.82;1.23;;;16.70;1.00;;;;;;5073739;28;20052;-39
2023/01/10 01:30:32;;;;;;;5.43;2.03;;;16.70;1.00;;;;;;5073830;28;20075;-37
2023/01/10 01:32:58;;;;;;;8.05;1.38;;;16.70;1.00;;;;;;5073577;28;20115;-37
2023/01/10 01:35:25;;;;;;;5.35;1.27;;;16.60;1.00;;;;;;5073543;28;20170;-37
2023/01/10 01:37:52;;;;;;;8.80;1.45;;;16.60;1.00;;;;;;5073595;28;20048;-37
2023/01/10 01:40:21;;;;;;;6.53;1.73;;;16.60;1.00;;;;;;5073625;28;20095;-37
2023/01/10 01:42:48;;;;;;;4.75;1.30;;;16.60;1.00;;;;;;5073345;28;20854;-38
2023/01/10 01:45:21;;;;;;;5.82;1.83;;;16.60;1.00;;;;;;5073377;28;20102;-38
2023/01/10 01:47:54;;;;;;;3.83;1.33;;;16.60;1.00;;;;;;5073573;28;20491;-38
2023/01/10 01:50:42;;;;;;;12.85;1.80;;;16.50;1.00;;;;;;5073442;28;20045;-38
2023/01/10 01:53:28;;;;;;;7.03;2.40;;;16.50;1.00;;;;;;5072903;28;20044;-39
2023/01/10 01:56:00;;;;;;;4.68;1.55;;;16.50;1.00;;;;;;5073328;28;20032;-38
2023/01/10 01:58:42;;;;;;;8.80;2.58;;;16.50;1.00;;;;;;5073361;28;20080;-38
2023/01/10 02:01:11;;;;;;;5.15;1.50;;;16.50;1.00;;;;;;5073098;28;20041;-38
2023/01/10 02:03:40;;;;;;;9.95;2.00;;;16.50;1.00;;;;;;5072828;28;20033;-38
2023/01/10 02:06:08;;;;;;;6.97;1.95;;;16.40;1.00;;;;;;5073090;28;20041;-38
2023/01/10 02:08:36;;;;;;;6.78;1.15;;;16.40;1.00;;;;;;5073106;28;20047;-38
2023/01/10 02:11:08;;;;;;;6.55;2.20;;;16.40;1.00;;;;;;5072926;28;20547;-38
2023/01/10 02:13:40;;;;;;;7.05;1.30;;;16.40;1.00;;;;;;5073161;28;20048;-38
2023/01/10 02:16:07;;;;;;;7.90;2.17;;;16.40;1.00;;;;;;5072904;28;20086;-39
2023/01/10 02:18:38;;;;;;;8.00;1.75;;;16.40;1.00;;;;;;5072687;28;20071;-38
2023/01/10 02:21:52;;;;;;;5.57;1.70;;;16.40;1.00;;;;;;5072176;28;20045;-39
2023/01/10 02:24:46;;;;;;;5.88;2.42;;;16.30;1.00;;;;;;5065874;28;20465;-39
2023/01/10 02:27:24;;;;;;;6.00;1.27;;;16.30;1.00;;;;;;5072703;28;20036;-39
2023/01/10 02:30:25;;;;;;;7.35;2.03;;;16.30;1.00;;;;;;5072742;28;20036;-39
2023/01/10 02:33:12;;;;;;;4.18;0.82;;;16.30;1.00;;;;;;5072312;28;20043;-38
2023/01/10 02:35:56;;;;;;;6.47;1.38;;;16.30;1.00;;;;;;5031641;28;20110;-38
2023/01/10 02:38:57;;;;;;;5.25;1.35;;;16.20;1.00;;;;;;5072483;28;20037;-38
2023/01/10 02:41:35;;;;;;;5.10;1.15;;;16.20;1.00;;;;;;5072472;28;20043;-38
2023/01/10 02:44:10;;;;;;;3.92;1.80;;;16.20;1.00;;;;;;5071987;28;20045;-39
2023/01/10 02:46:38;;;;;;;6.93;1.40;;;16.20;1.00;;;;;;5097563;22;20063;-31
2023/01/10 02:49:05;;;;;;;9.32;2.25;;;16.20;1.00;;;;;;5062280;28;20681;-32
2023/01/10 02:51:32;;;;;;;6.85;1.90;;;16.20;1.00;;;;;;5072264;28;20044;-31
2023/01/10 02:54:08;;;;;;;8.18;2.10;;;16.20;1.00;;;;;;5071853;28;20052;-32
2023/01/10 02:56:56;;;;;;;4.88;1.50;;;16.20;1.00;;;;;;5056008;28;20052;-31
2023/01/10 02:59:51;;;;;;;5.43;1.42;;;16.10;1.00;;;;;;5052092;28;20071;-32
2023/01/10 03:02:34;;;;;;;5.03;1.10;;;16.10;1.00;;;;;;5051948;28;20041;-31
2023/01/10 03:05:16;;;;;;;7.30;1.23;;;16.10;1.00;;;;;;5051846;28;20040;-32
2023/01/10 03:07:55;;;;;;;8.43;1.70;;;16.10;1.00;;;;;;5051947;28;20040;-32
2023/01/10 03:10:44;;;;;;;8.25;1.42;;;16.10;1.00;;;;;;5052004;28;20124;-31
2023/01/10 03:13:17;;;;;;;11.75;2.13;;;16.10;1.00;;;;;;5051648;28;20045;-31
2023/01/10 03:15:47;;;;;;;8.40;2.30;;;16.10;1.00;;;;;;5051802;28;20045;-32
2023/01/10 03:18:20;;;;;;;5.80;2.50;;;16.10;1.00;;;;;;5051143;28;20511;-31
2023/01/10 03:20:50;;;;;;;9.57;1.45;;;16.00;1.00;;;;;;5059799;28;20123;-32
2023/01/10 03:23:19;;;;;;;10.55;2.00;;;16.00;1.00;;;;;;5083264;28;20071;-31
2023/01/10 03:25:48;;;;;;;8.95;1.90;;;16.00;1.00;;;;;;5083326;28;20036;-31
2023/01/10 03:28:28;;;;;;;7.57;2.67;;;16.00;1.00;;;;;;5064316;28;20036;-31
2023/01/10 03:31:07;;;;;;;6.75;1.92;;;16.00;1.00;;;;;;5079933;28;20036;-31
2023/01/10 03:33:35;;;;;;;4.35;1.52;;;16.00;1.00;;;;;;5075960;28;20116;-31
2023/01/10 03:36:15;;;;;;;8.68;1.35;;;16.00;1.00;;;;;;5051530;28;20045;-32
2023/01/10 03:38:52;;;;;;;7.25;3.28;;;16.00;1.00;;;;;;5051730;28;20049;-31
2023/01/10 03:41:35;;;;;;;6.47;1.20;;;15.90;1.00;;;;;;5051694;28;20079;-31
2023/01/10 03:47:04;;;;;;;8.27;2.53;;;15.90;1.00;;;;;;5071109;28;20058;-32
2023/01/10 03:49:33;;;;;;;6.63;1.42;;;15.90;1.00;;;;;;5087222;28;20048;-32
2023/01/10 03:52:02;;;;;;;8.73;1.98;;;15.90;1.00;;;;;;5091737;28;20066;-32
2023/01/10 03:54:29;;;;;;;5.97;1.15;;;15.90;1.00;;;;;;5091526;28;20036;-31
2023/01/10 03:56:56;;;;;;;4.57;1.30;;;15.90;1.00;;;;;;5091753;28;20122;-32
2023/01/10 03:59:25;;;;;;;6.22;1.83;;;15.90;1.00;;;;;;5091615;28;20548;-31
2023/01/10 04:01:53;;;;;;;6.30;1.90;;;15.90;1.00;;;;;;5091626;28;20356;-32
2023/01/10 04:04:20;;;;;;;9.45;1.98;;;15.90;1.00;;;;;;5091229;28;20044;-32
2023/01/10 04:06:47;;;;;;;4.75;1.27;;;15.80;1.00;;;;;;5091590;28;20040;-31
2023/01/10 04:09:14;;;;;;;8.50;1.67;;;15.90;1.00;;;;;;5091544;28;20040;-32
2023/01/10 04:11:41;;;;;;;6.78;2.15;;;15.80;1.00;;;;;;5073587;28;20123;-31
2023/01/10 04:14:07;;;;;;;8.15;2.13;;;15.80;1.00;;;;;;5091238;28;20560;-32
2023/01/10 04:16:34;;;;;;;5.10;1.77;;;15.80;1.00;;;;;;5091306;28;20040;-32
2023/01/10 04:19:01;;;;;;;6.82;1.75;;;15.80;1.00;;;;;;5091462;28;20055;-31
2023/01/10 04:21:28;;;;;;;8.05;1.52;;;15.80;1.00;;;;;;5091437;28;20075;-32
2023/01/10 04:23:55;;;;;;;7.63;1.50;;;15.80;1.00;;;;;;5091088;28;20487;-31
2023/01/10 04:26:21;;;;;;;6.28;1.75;;;15.80;1.00;;;;;;5091361;28;20055;-31
2023/01/10 04:28:48;;;;;;;6.38;1.70;;;15.80;1.00;;;;;;5091427;28;20101;-32
2023/01/10 04:31:15;;;;;;;6.65;1.55;;;15.70;1.00;;;;;;5091306;28;20114;-31
2023/01/10 04:33:41;;;;;;;7.38;1.92;;;15.70;1.00;;;;;;5090973;28;20055;-32
2023/01/10 04:36:08;;;;;;;6.25;2.67;;;15.70;1.00;;;;;;5091238;28;20044;-32
2023/01/10 04:38:35;;;;;;;5.95;1.80;;;15.80;1.00;;;;;;5091349;28;20127;-31
2023/01/10 04:41:02;;;;;;;3.65;1.50;;;15.70;1.00;;;;;;5091265;28;20102;-31
2023/01/10 04:43:28;;;;;;;5.47;1.50;;;15.70;1.00;;;;;;5092878;28;20036;-31
2023/01/10 04:45:55;;;;;;;9.77;2.05;;;15.70;1.00;;;;;;5076506;28;20118;-32
2023/01/10 04:48:22;;;;;;;5.88;2.17;;;15.70;1.00;;;;;;5094891;28;20052;-31
2023/01/10 04:50:50;;;;;;;10.38;1.77;;;15.70;1.00;;;;;;5095027;28;20040;-32
2023/01/10 04:53:17;;;;;;;13.30;1.92;;;15.70;1.00;;;;;;5076345;28;20077;-32
2023/01/10 04:55:44;;;;;;;10.93;2.33;;;15.70;1.00;;;;;;5094600;28;20047;-32
2023/01/10 04:58:11;;;;;;;6.85;1.10;;;15.70;1.00;;;;;;5094489;28;20507;-31
2023/01/10 05:00:38;;;;;;;6.72;1.38;;;15.60;1.00;;;;;;5094558;28;20071;-32
2023/01/10 05:03:05;;;;;;;7.60;2.53;;;15.60;1.00;;;;;;5094332;28;20040;-32
2023/01/10 05:05:32;;;;;;;7.22;1.33;;;15.60;1.00;;;;;;5076132;28;20040;-32
2023/01/10 05:07:59;;;;;;;5.65;1.70;;;15.60;1.00;;;;;;5079560;28;20040;-31
2023/01/10 05:10:26;;;;;;;24.23;2.08;;;15.60;1.00;;;;;;5074229;28;20040;-31
2023/01/10 05:12:53;;;;;;;7.35;2.22;;;15.60;1.00;;;;;;5071678;28;20082;-31
2023/01/10 05:15:21;;;;;;;4.93;2.00;;;15.60;1.00;;;;;;5083362;28;20071;-32
2023/01/10 05:17:50;;;;;;;9.02;2.05;;;15.60;1.00;;;;;;5085861;28;20040;-32
2023/01/10 05:20:17;;;;;;;11.45;2.40;;;15.60;1.00;;;;;;5094239;28;20044;-42
2023/01/10 05:22:44;;;;;;;9.73;2.55;;;15.60;1.00;;;;;;5093984;28;20040;-36
2023/01/10 05:25:11;;;;;;;16.48;3.15;;;15.60;1.00;;;;;;5093842;28;20040;-36
2023/01/10 05:27:41;;;;;;;11.60;2.83;;;15.60;1.00;;;;;;5094154;28;20036;-39
2023/01/10 05:30:12;;;;;;;15.73;2.90;;;15.60;1.00;;;;;;5094086;28;20097;-39
2023/01/10 05:32:38;;;;;;;20.92;3.85;;;15.60;1.00;;;;;;5093762;28;20119;-36
2023/01/10 05:35:06;;;;;;;15.80;2.25;;;15.50;1.00;;;;;;5093858;28;20044;-34
2023/01/10 05:37:32;;;;;;;14.60;2.88;;;15.50;1.00;;;;;;5093956;28;20455;-38
2023/01/10 05:39:59;;;;;;;10.32;2.35;;;15.50;1.00;;;;;;5093808;28;20069;-39
2023/01/10 05:42:26;;;;;;;11.13;2.13;;;15.50;1.00;;;;;;5085007;28;20042;-33
2023/01/10 05:44:53;;;;;;;14.82;2.85;;;15.50;1.00;;;;;;5086974;28;20087;-38
2023/01/10 05:47:20;;;;;;;16.05;3.15;;;15.50;1.00;;;;;;5087211;28;20043;-32
2023/01/10 05:49:46;;;;;;;13.80;2.15;;;15.50;1.00;;;;;;5074538;28;20044;-33
2023/01/10 05:52:13;;;;;;;11.07;2.08;;;15.50;1.00;;;;;;5093264;28;20043;-35
2023/01/10 05:54:41;;;;;;;10.02;2.40;;;15.40;1.00;;;;;;5092210;28;20086;-36
2023/01/10 05:57:07;;;;;;;13.77;2.78;;;15.40;1.00;;;;;;5093446;28;20052;-36
2023/01/10 05:59:34;;;;;;;8.77;1.60;;;15.50;1.00;;;;;;5093431;28;20119;-36
2023/01/10 06:02:01;;;;;;;9.10;2.28;;;15.40;1.00;;;;;;5093357;28;20546;-32
2023/01/10 06:04:28;;;;;;;9.07;2.50;;;15.40;1.00;;;;;;5093072;28;20048;-36
2023/01/10 06:06:54;;;;;;;12.40;2.33;;;15.40;1.00;;;;;;5093142;28;20456;-32
2023/01/10 06:09:21;;;;;;;6.00;1.60;;;15.40;1.00;;;;;;5093205;28;20055;-35
2023/01/10 06:11:48;;;;;;;8.73;2.55;;;15.40;1.00;;;;;;5093455;28;20113;-35
2023/01/10 06:14:18;;;;;;;7.70;2.20;;;15.40;1.00;;;;;;5092758;28;20064;-35
2023/01/10 06:16:45;;;;;;;4.93;1.52;;;15.40;1.00;;;;;;5092962;28;20044;-34
2023/01/10 06:19:12;;;;;;;10.48;2.67;;;15.40;1.00;;;;;;5093070;28;20052;-38
2023/01/10 06:21:39;;;;;;;11.32;2.83;;;15.30;1.00;;;;;;5092891;28;20551;-36
2023/01/10 06:24:06;;;;;;;7.68;1.95;;;15.30;1.00;;;;;;5092696;28;20044;-34
2023/01/10 06:26:33;;;;;;;12.32;2.80;;;15.30;1.00;;;;;;5092769;28;20044;-33
2023/01/10 06:29:00;;;;;;;12.60;2.17;;;15.30;1.00;;;;;;5074924;28;20089;-35
2023/01/10 06:31:27;;;;;;;9.48;1.77;;;15.30;1.00;;;;;;5092776;28;20036;-33
2023/01/10 06:33:54;;;;;;;9.25;2.22;;;15.30;1.00;;;;;;5092445;28;20449;-33
2023/01/10 06:36:20;;;;;;;7.30;1.90;;;15.30;1.00;;;;;;5074511;28;20487;-33
2023/01/10 06:38:47;;;;;;;7.45;1.55;;;15.30;1.00;;;;;;5092811;28;20051;-36
2023/01/10 06:41:14;;;;;;;10.70;1.92;;;15.30;1.00;;;;;;5092708;28;20073;-32
2023/01/10 06:43:45;;;;;;;10.40;1.65;;;15.30;1.00;;;;;;5092335;28;20389;-36
2023/01/10 06:46:15;;;;;;;7.15;2.28;;;15.30;1.00;;;;;;5074192;28;20067;-37
2023/01/10 06:48:44;;;;;;;11.13;2.20;;;15.30;1.00;;;;;;5092360;28;20048;-31
2023/01/10 06:51:15;;;;;;;9.68;2.10;;;15.30;1.00;;;;;;5092459;28;20040;-32
2023/01/10 06:53:45;;;;;;;10.75;1.75;;;15.30;1.00;;;;;;5092111;28;20165;-35
2023/01/10 06:56:12;;;;;;;9.15;1.77;;;15.30;1.00;;;;;;5074532;28;20453;-34
2023/01/10 06:58:39;;;;;;;7.18;1.63;;;15.30;1.00;;;;;;5092366;28;20499;-39
2023/01/10 07:01:11;;;;;;;9.27;2.13;;;15.30;1.00;;;;;;5092173;28;20040;-33
2023/01/10 07:03:39;;;;;;;7.72;1.80;;;15.30;1.00;;;;;;5092076;28;20052;-37
2023/01/10 07:06:10;;;;;;;8.48;1.80;;;15.20;1.00;;;;;;5073690;28;20524;-35
2023/01/10 07:08:39;;;;;;;9.32;2.03;;;15.30;1.00;;;;;;5092245;28;20046;-34
2023/01/10 07:11:07;;;;;;;4.38;1.13;;;15.20;1.00;;;;;;5092214;28;20491;-32
2023/01/10 07:13:34;;;;;;;9.10;1.95;;;15.20;1.00;;;;;;5091642;28;20044;-35
2023/01/10 07:16:06;;;;;;;10.25;2.20;;;15.20;1.00;;;;;;5073997;28;20047;-34
2023/01/10 07:18:34;;;;;;;8.75;1.98;;;15.20;1.00;;;;;;5092212;28;20098;-34
2023/01/10 07:21:01;;;;;;;9.30;2.50;;;15.20;1.00;;;;;;5092015;28;20051;-36
2023/01/10 07:23:29;;;;;;;9.57;2.15;;;15.20;1.00;;;;;;5091760;28;20395;-36
2023/01/10 07:25:57;;;;;;;4.20;1.52;;;15.20;1.00;;;;;;5091853;28;20089;-36
2023/01/10 07:28:24;;;;;;;8.27;1.25;;;15.20;1.00;;;;;;5091965;28;20044;-32
2023/01/10 07:30:51;;;;;;;6.75;1.20;;;15.20;1.00;;;;;;5091853;28;20483;-33
2023/01/10 07:33:18;;;;;;;4.88;1.67;;;15.20;1.00;;;;;;5091643;28;20052;-35
2023/01/10 07:35:45;;;;;;;5.65;1.70;;;15.20;1.00;;;;;;5073837;28;20048;-33
2023/01/10 07:38:12;;;;;;;4.38;1.38;;;15.20;1.00;;;;;;5091728;28;20123;-37
2023/01/10 07:40:38;;;;;;;7.28;1.60;;;15.20;1.00;;;;;;5091629;28;20067;-37
2023/01/10 07:43:05;;;;;;;5.90;2.10;;;15.20;1.00;;;;;;5091262;28;20461;-32
2023/01/10 07:45:32;;;;;;;6.50;1.30;;;15.20;1.00;;;;;;5087799;28;20044;-35
2023/01/10 07:48:01;;;;;;;6.63;1.55;;;15.20;1.00;;;;;;5085741;28;20071;-35
2023/01/10 07:50:30;;;;;;;9.48;1.85;;;15.10;1.00;;;;;;5084825;28;20052;-34
2023/01/10 07:52:58;;;;;;;7.72;2.10;;;15.10;1.00;;;;;;5067301;28;20470;-36
2023/01/10 07:55:26;;;;;;;6.65;1.83;;;15.20;1.00;;;;;;5088626;28;20735;-37
2023/01/10 07:57:53;;;;;;;8.23;1.75;;;15.10;1.00;;;;;;5073650;28;20052;-36
2023/01/10 08:00:20;;;;;;;6.63;1.33;;;15.10;1.00;;;;;;5091426;28;20044;-38
2023/01/10 08:02:51;;;;;;;5.32;1.58;;;15.10;1.00;;;;;;5091475;28;20071;-35
2023/01/10 08:05:18;;;;;;;5.82;1.88;;;15.10;1.00;;;;;;5091174;28;20051;-35
2023/01/10 08:07:45;;;;;;;6.20;1.67;;;15.10;1.00;;;;;;5091545;28;20060;-34
2023/01/10 08:10:11;;;;;;;3.75;0.80;;;15.10;1.00;;;;;;5091564;28;20491;-34
2023/01/10 08:12:38;;;;;;;8.18;1.40;;;15.10;1.00;;;;;;5091259;28;20501;-34
2023/01/10 08:15:05;;;;;;;8.25;1.42;;;15.10;1.00;;;;;;5091257;28;20044;-33
2023/01/10 08:17:33;;;;;;;5.20;1.58;;;15.10;1.00;;;;;;5073888;28;20044;-32
2023/01/10 08:20:00;;;;;;;4.43;1.48;;;15.10;1.00;;;;;;5095312;28;20093;-32
2023/01/10 08:22:27;;;;;;;8.90;1.60;;;15.10;1.00;;;;;;5095008;28;20036;-35
2023/01/10 08:24:54;;;;;;;6.85;1.90;;;15.10;1.00;;;;;;5094837;28;20052;-32
2023/01/10 08:27:21;;;;;;;7.28;1.45;;;15.10;1.00;;;;;;5095259;28;20064;-39
2023/01/10 08:29:47;;;;;;;7.65;1.52;;;15.00;1.00;;;;;;5095043;28;20040;-36
2023/01/10 08:32:14;;;;;;;6.60;1.80;;;15.10;1.00;;;;;;5095048;28;20068;-34
2023/01/10 08:34:41;;;;;;;4.85;1.38;;;15.00;1.00;;;;;;5094789;28;20044;-33
2023/01/10 08:37:11;;;;;;;8.68;1.40;;;15.00;1.00;;;;;;5076957;28;20078;-34
2023/01/10 08:39:38;;;;;;;8.18;2.47;;;15.10;1.00;;;;;;5094941;28;20040;-39
2023/01/10 08:42:05;;;;;;;7.88;1.88;;;15.00;1.00;;;;;;5094930;28;20097;-37
2023/01/10 08:44:32;;;;;;;9.57;1.40;;;15.00;1.00;;;;;;5094533;28;20119;-41
2023/01/10 08:46:59;;;;;;;5.90;1.58;;;15.00;1.00;;;;;;5094629;28;20047;-37
2023/01/10 08:49:25;;;;;;;4.72;1.55;;;15.00;1.00;;;;;;5094647;28;20036;-34
2023/01/10 08:51:59;;;;;;;9.25;1.67;;;15.00;1.00;;;;;;5076746;28;20063;-34
2023/01/10 08:54:25;;;;;;;;;;;15.00;1.00;;;;;;5094882;28;20514;-36
2023/01/10 08:56:52;;;;;;;5.25;1.85;;;15.00;1.00;;;;;;5094410;28;19962;-37
2023/01/10 08:59:19;;;;;;;7.72;2.20;;;15.00;1.00;;;;;;5094560;28;20059;-35
2023/01/10 09:01:46;;;;;;;3.40;1.35;;;15.00;1.00;;;;;;5094312;28;20123;-33
2023/01/10 09:04:13;;;;;;;6.93;1.40;;;15.00;1.00;;;;;;5094066;28;20079;-38
2023/01/10 09:06:39;;;;;;;5.32;1.50;;;15.00;1.00;;;;;;5094306;28;20115;-38
2023/01/10 09:09:06;;;;;;;4.70;1.40;;;15.00;1.00;;;;;;5094462;28;20407;-39
2023/01/10 09:11:33;;;;;;;4.63;1.40;;;15.00;1.00;;;;;;5094627;28;20036;-38
2023/01/10 09:14:00;;;;;;;5.75;1.58;;;15.00;1.00;;;;;;5093865;28;20132;-37
2023/01/10 09:16:27;;;;;;;7.50;1.98;;;15.00;1.00;;;;;;5094046;28;20503;-36
2023/01/10 09:18:54;;;;;;;6.07;1.95;;;15.00;1.00;;;;;;5094510;28;20440;-34
2023/01/10 09:21:21;;;;;;;8.05;2.30;;;15.00;1.00;;;;;;5094296;28;20131;-34
2023/01/10 09:23:48;;;;;;;6.65;1.60;;;15.00;1.00;;;;;;5093886;28;20399;-33
2023/01/10 09:26:15;;;;;;;5.95;2.00;;;15.00;1.00;;;;;;5093781;28;20123;-36
2023/01/10 09:28:41;;;;;;;8.88;1.60;;;15.00;1.00;;;;;;5093766;28;20040;-37
2023/01/10 09:31:10;;;;;;;6.97;1.30;;;15.00;1.00;;;;;;5093769;28;20071;-36
2023/01/10 09:33:40;;;;;;;4.93;1.05;;;14.90;1.00;;;;;;5093734;28;20479;-32
2023/01/10 09:36:14;;;;;;;5.15;1.35;;;14.90;1.00;;;;;;5093719;28;20040;-36
2023/01/10 09:38:43;;;;;;;5.72;2.30;;;14.90;1.00;;;;;;5075804;28;20079;-36
2023/01/10 09:41:36;;;;;;;8.05;1.45;;;14.90;1.00;;;;;;5093636;28;20422;-33
2023/01/10 09:44:15;;;;;;;8.70;2.53;;;14.90;1.00;;;;;;5093527;28;20051;-37
2023/01/10 09:47:07;;;;;;;7.85;2.10;;;15.00;1.00;;;;;;5093566;28;20032;-36
2023/01/10 09:50:17;;;;;;;9.38;1.70;;;15.00;1.00;;;;;;5093952;28;20032;-36
2023/01/10 09:52:48;;;;;;;7.00;1.60;;;14.90;1.00;;;;;;5093387;28;20044;-35
2023/01/10 09:55:18;;;;;;;7.43;1.77;;;14.90;1.00;;;;;;5093397;28;20047;-36
2023/01/10 09:57:45;;;;;;;11.82;2.15;;;14.90;1.00;;;;;;5093475;28;20051;-33
2023/01/10 10:00:19;;;;;;;9.70;2.22;;;14.90;1.00;;;;;;5093222;28;20036;-37
2023/01/10 10:02:51;;;;;;;8.07;1.42;;;14.90;1.00;;;;;;5093181;28;20040;-36
2023/01/10 10:05:21;;;;;;;8.02;1.83;;;14.90;1.00;;;;;;5093157;28;20114;-34
2023/01/10 10:07:53;;;;;;;5.38;2.45;;;14.90;1.00;;;;;;5093366;28;20036;-34
2023/01/10 10:11:02;;;;;;;7.25;1.65;;;14.90;1.00;;;;;;5093147;28;20129;-38
2023/01/10 10:13:56;;;;;;;8.50;1.75;;;14.90;1.00;;;;;;5092865;28;20043;-34
2023/01/10 10:16:53;;;;;;;3.83;1.20;;;14.90;1.00;;;;;;5092979;28;20047;-36
2023/01/10 10:19:45;;;;;;;7.45;1.40;;;14.90;1.00;;;;;;5093078;28;20544;-34
2023/01/10 10:22:26;;;;;;;5.10;2.17;;;14.90;1.00;;;;;;5092983;28;20499;-35
2023/01/10 10:25:08;;;;;;;5.28;1.48;;;14.90;1.00;;;;;;5074289;28;20044;-35
2023/01/10 10:27:51;;;;;;;8.00;1.38;;;14.90;1.00;;;;;;5074666;28;20404;-32
2023/01/10 10:30:28;;;;;;;7.32;1.30;;;14.90;1.00;;;;;;5092956;28;20388;-33
2023/01/10 10:33:29;;;;;;;11.27;2.70;;;14.90;1.00;;;;;;5092542;28;20036;-36
2023/01/10 10:36:01;;;;;;;9.27;1.50;;;14.90;1.00;;;;;;5093099;28;20059;-35
2023/01/10 10:38:35;;;;;;;6.30;1.70;;;14.90;1.00;;;;;;5092838;28;20052;-35
2023/01/10 10:41:02;;;;;;;3.70;1.15;;;14.90;1.00;;;;;;5091932;28;20036;-32
2023/01/10 10:43:32;;;;;;;5.90;1.60;;;14.80;1.00;;;;;;5092426;28;20065;-38
2023/01/10 10:46:17;;;;;;;6.85;1.50;;;14.80;1.00;;;;;;5092066;28;20131;-35
2023/01/10 10:49:02;;;;;;;6.03;2.33;;;14.90;1.00;;;;;;5092502;28;20085;-35
2023/01/10 10:51:51;;;;;;;9.43;2.05;;;14.90;1.00;;;;;;5092544;28;20044;-35
2023/01/10 10:54:18;;;;;;;8.45;1.70;;;14.80;1.00;;;;;;5091959;28;20093;-38
2023/01/10 10:56:46;;;;;;;6.30;1.58;;;14.90;1.00;;;;;;5074474;28;20402;-35
2023/01/10 10:59:18;;;;;;;6.68;1.30;;;14.80;1.00;;;;;;5092270;28;20559;-37
2023/01/10 11:01:47;;;;;;;4.07;1.30;;;14.80;1.00;;;;;;5092248;28;20048;-37
2023/01/10 11:04:18;;;;;;;3.90;1.33;;;14.80;1.00;;;;;;5091738;28;20075;-34
2023/01/10 11:06:48;;;;;;;6.30;1.25;;;14.80;1.00;;;;;;5091955;28;20040;-32
2023/01/10 11:11:58;;;;;;;6.20;1.63;;;14.80;1.00;;;;;;5092135;28;20040;-34
2023/01/10 11:14:45;;;;;;;4.32;1.90;;;14.80;1.00;;;;;;5091739;28;20063;-33
2023/01/10 11:17:19;;;;;;;6.47;2.22;;;14.80;1.00;;;;;;5091943;28;20052;-36
2023/01/10 11:20:00;;;;;;;7.93;1.48;;;14.80;1.00;;;;;;5091962;28;20052;-32
2023/01/10 11:22:44;;;;;;;7.20;1.70;;;14.80;1.00;;;;;;5091939;28;20046;-36
2023/01/10 11:25:18;;;;;;;;;;;14.80;1.00;;;;;;5092102;28;20109;-33
2023/01/10 11:27:55;;;;;;;;;;;14.80;1.00;;;;;;5092262;28;19920;-34
2023/01/10 11:30:27;;;;;;;8.68;1.73;;;14.80;1.00;;;;;;5091784;28;19923;-35
2023/01/10 11:33:00;;;;;;;5.68;1.63;;;14.80;1.00;;;;;;5091693;28;20044;-38
2023/01/10 11:35:37;;;;;;;6.65;1.80;;;14.80;1.00;;;;;;5091679;28;20040;-34
2023/01/10 11:38:28;;;;;;;8.93;1.90;;;14.80;1.00;;;;;;5091855;28;20077;-32
2023/01/10 11:41:21;;;;;;;8.73;1.48;;;14.80;1.00;;;;;;5091740;28;20047;-32
2023/01/10 11:43:48;;;;;;;8.07;1.30;;;14.80;1.00;;;;;;5091589;28;20388;-33
2023/01/10 11:46:16;;;;;;;6.72;1.70;;;14.80;1.00;;;;;;5091469;28;20071;-37
2023/01/10 11:48:44;;;;;;;8.02;1.67;;;14.80;1.00;;;;;;5073642;28;20056;-32
2023/01/10 11:51:36;;;;;;;9.02;1.90;;;14.80;1.00;;;;;;5092161;28;20048;-33
2023/01/10 11:54:06;;;;;;;8.95;1.67;;;14.80;1.00;;;;;;5095380;28;20079;-37
2023/01/10 11:56:35;;;;;;;5.38;1.50;;;14.80;1.00;;;;;;5095729;28;20055;-36
2023/01/10 11:59:18;;;;;;;8.82;2.25;;;14.80;1.00;;;;;;5095502;28;20050;-34
2023/01/10 12:01:56;;;;;;;4.60;1.88;;;14.80;1.00;;;;;;5095583;28;20044;-37
2023/01/10 12:04:26;;;;;;;4.20;1.50;;;14.80;1.00;;;;;;5095435;28;20069;-35
2023/01/10 12:06:58;;;;;;;6.15;1.85;;;14.80;1.00;;;;;;5095527;28;20044;-35
2023/01/10 12:10:27;;;;;;;6.55;1.42;;;14.80;1.00;;;;;;5095319;28;20101;-36
2023/01/10 12:12:57;;;;;;;7.32;2.05;;;14.80;1.00;;;;;;5095204;28;20036;-34
2023/01/10 12:15:27;;;;;;;9.15;1.75;;;14.70;1.00;;;;;;5095274;28;20093;-36
2023/01/10 12:18:00;;;;;;;6.05;1.67;;;14.70;1.00;;;;;;5095468;28;20040;-33
2023/01/10 12:20:30;;;;;;;3.63;1.47;;;14.80;1.00;;;;;;5095421;28;20479;-33
2023/01/10 12:23:02;;;;;;;6.97;1.70;;;14.70;1.00;;;;;;5095123;28;20130;-34
2023/01/10 12:25:33;;;;;;;7.20;2.00;;;14.70;1.00;;;;;;5095131;28;20044;-35
2023/01/10 12:28:01;;;;;;;4.88;1.33;;;14.80;1.00;;;;;;5095135;28;20060;-34
2023/01/10 12:30:39;;;;;;;7.95;1.65;;;14.70;1.00;;;;;;5095167;28;20051;-35
2023/01/10 12:33:14;;;;;;;7.80;2.15;;;14.80;1.00;;;;;;5094953;28;20063;-34
2023/01/10 12:36:01;;;;;;;11.63;2.00;;;14.70;1.00;;;;;;5094879;28;20051;-35
2023/01/10 12:39:04;;;;;;;6.93;1.83;;;14.80;1.00;;;;;;5095068;28;20456;-37
2023/01/10 12:44:38;;;;;;;7.82;1.80;;;14.70;1.00;;;;;;5094363;28;20097;-35
2023/01/10 12:47:23;;;;;;;5.13;1.80;;;14.70;1.00;;;;;;5094700;28;20089;-35
2023/01/10 12:50:02;;;;;;;4.25;1.10;;;14.70;1.00;;;;;;5076769;28;20044;-34
2023/01/10 12:52:57;;;;;;;5.90;2.00;;;14.70;1.00;;;;;;5076852;28;20307;-37
2023/01/10 12:55:34;;;;;;;4.88;1.85;;;14.70;1.00;;;;;;5094530;28;20060;-35
2023/01/10 12:58:04;;;;;;;6.85;1.63;;;14.70;1.00;;;;;;5094795;28;20050;-33
2023/01/10 13:00:42;;;;;;;9.10;1.70;;;14.70;1.00;;;;;;5094471;28;20131;-37
2023/01/10 13:03:35;;;;;;;12.98;2.20;;;14.70;1.00;;;;;;5093500;28;20044;-34
2023/01/10 13:06:02;;;;;;;3.00;1.17;;;14.70;1.00;;;;;;5093414;28;20062;-33
2023/01/10 13:08:33;;;;;;;4.85;1.23;;;14.70;1.00;;;;;;5094398;28;20040;-35
2023/01/10 13:11:01;;;;;;;6.80;1.23;;;14.70;1.00;;;;;;5094423;28;20036;-35
2023/01/10 13:13:45;;;;;;;5.45;1.33;;;14.70;1.00;;;;;;5094026;28;20046;-33
2023/01/10 13:16:35;;;;;;;3.38;1.27;;;14.70;1.00;;;;;;5094113;28;20097;-32
2023/01/10 13:19:10;;;;;;;9.13;1.45;;;14.70;1.00;;;;;;5094310;28;20083;-34
2023/01/10 13:21:39;;;;;;;6.22;1.60;;;14.70;1.00;;;;;;5094194;28;20380;-32
2023/01/10 13:24:23;;;;;;;8.95;1.95;;;14.70;1.00;;;;;;5093860;28;20032;-35
2023/01/10 13:26:59;;;;;;;8.10;1.73;;;14.70;1.00;;;;;;5094246;28;20463;-36
2023/01/10 13:29:29;;;;;;;6.13;1.98;;;14.70;1.00;;;;;;5093922;28;20047;-39
2023/01/10 13:32:00;;;;;;;5.95;1.60;;;14.70;1.00;;;;;;5094099;28;20510;-36
2023/01/10 13:34:33;;;;;;;7.13;1.42;;;14.70;1.00;;;;;;5093653;28;20036;-37
2023/01/10 13:37:09;;;;;;;11.57;1.38;;;14.70;1.00;;;;;;5093757;28;20051;-34